Time;durP1;ratioP1;P1;durP2;ratioP2;P2;SDS_P1;SDS_P2;PMS_P1;PMS_P2;Temp;Humidity;BMP_temperature;BMP_pressure;BME280_temperature;BME280_humidity;BME280_pressure;Samples;Min_cycle;Max_cycle;Signal;HPM_P1;HPM_P2
2024/04/14 00:02:14;;;;;;;33.15;31.13;;;;;;;10.84;100.00;101714.44;5562425;25;20001;-76
2024/04/14 00:04:50;;;;;;;33.45;31.15;;;;;;;10.78;100.00;101714.16;5564650;25;20005;-76
2024/04/14 00:07:18;;;;;;;31.63;29.73;;;;;;;10.85;100.00;101713.41;5562308;25;20533;-75
2024/04/14 00:09:47;;;;;;;31.02;28.83;;;;;;;10.48;100.00;101710.63;5564718;25;20011;-76
2024/04/14 00:12:13;;;;;;;31.90;30.00;;;;;;;10.66;100.00;101712.13;5561837;25;20060;-76
2024/04/14 00:14:49;;;;;;;33.25;30.88;;;;;;;10.52;100.00;101708.44;5564790;25;20830;-75
2024/04/14 00:17:16;;;;;;;33.63;31.48;;;;;;;10.63;100.00;101704.53;5562025;25;20007;-76
2024/04/14 00:19:48;;;;;;;31.65;29.42;;;;;;;10.52;100.00;101709.25;5543101;25;20032;-75
2024/04/14 00:22:14;;;;;;;;;;;;;;;10.61;100.00;101711.84;5556129;25;20451;-75
2024/04/14 00:24:43;;;;;;;28.33;26.25;;;;;;;10.40;100.00;101718.66;5552706;25;19923;-75
2024/04/14 00:27:09;;;;;;;28.65;26.80;;;;;;;10.23;100.00;101717.97;5560040;25;20718;-75
2024/04/14 00:29:38;;;;;;;37.17;34.88;;;;;;;10.35;100.00;101717.56;5564502;25;20041;-76
2024/04/14 00:32:05;;;;;;;33.10;31.10;;;;;;;10.26;100.00;101714.16;5561400;25;20076;-76
2024/04/14 00:34:36;;;;;;;35.80;33.63;;;;;;;10.32;100.00;101718.75;5550225;25;20002;-75
2024/04/14 00:37:05;;;;;;;32.17;30.17;;;;;;;10.41;100.00;101720.34;5523892;26;19993;-75
2024/04/14 00:39:34;;;;;;;32.47;30.45;;;;;;;10.36;100.00;101719.22;5527306;26;20013;-76
2024/04/14 00:42:00;;;;;;;33.05;30.95;;;;;;;10.34;100.00;101722.03;5523845;26;20430;-75
2024/04/14 00:44:35;;;;;;;31.45;29.45;;;;;;;10.37;100.00;101716.38;5526663;25;19997;-75
2024/04/14 00:47:02;;;;;;;29.55;27.58;;;;;;;10.20;100.00;101722.81;5539711;25;20451;-75
2024/04/14 00:49:32;;;;;;;33.22;31.02;;;;;;;10.15;100.00;101725.19;5564663;25;20001;-75
2024/04/14 00:52:02;;;;;;;32.72;30.83;;;;;;;10.30;100.00;101723.41;5562660;25;20048;-82
2024/04/14 00:54:39;;;;;;;33.30;31.30;;;;;;;10.09;100.00;101714.25;5566232;25;20030;-81
2024/04/14 00:57:07;;;;;;;31.48;29.48;;;;;;;10.29;100.00;101719.13;5532863;25;20016;-75
2024/04/14 00:59:37;;;;;;;32.33;30.42;;;;;;;9.87;100.00;101728.38;5564930;25;19997;-75
2024/04/14 01:02:05;;;;;;;30.10;28.05;;;;;;;9.86;100.00;101716.09;5561997;25;19997;-75
2024/04/14 01:04:34;;;;;;;35.05;32.75;;;;;;;10.33;100.00;101725.72;5564949;25;20072;-81
2024/04/14 01:07:00;;;;;;;32.42;30.42;;;;;;;10.03;100.00;101727.41;5563301;25;20016;-81
2024/04/14 01:09:29;;;;;;;37.22;34.88;;;;;;;10.03;100.00;101722.94;5564577;25;20436;-81
2024/04/14 01:11:58;;;;;;;31.80;29.50;;;;;;;10.11;100.00;101722.06;5562262;25;20075;-81
2024/04/14 01:14:28;;;;;;;31.33;29.23;;;;;;;9.93;100.00;101727.66;5564321;25;20000;-75
2024/04/14 01:16:57;;;;;;;28.10;26.30;;;;;;;9.91;100.00;101726.19;5562253;25;19997;-82
2024/04/14 01:19:26;;;;;;;29.90;27.90;;;;;;;9.79;100.00;101723.94;5565222;25;20472;-82
2024/04/14 01:21:54;;;;;;;30.67;28.58;;;;;;;9.87;100.00;101728.38;5558334;25;20469;-80
2024/04/14 01:24:22;;;;;;;28.40;26.60;;;;;;;9.39;100.00;101720.53;5563906;25;20000;-81
2024/04/14 01:26:51;;;;;;;30.30;28.40;;;;;;;9.78;100.00;101732.91;5562288;25;20011;-82
2024/04/14 01:29:21;;;;;;;33.78;31.58;;;;;;;9.63;100.00;101730.19;5565379;25;19997;-75
2024/04/14 01:31:47;;;;;;;32.65;30.25;;;;;;;9.69;100.00;101726.00;5561601;25;20001;-75
2024/04/14 01:34:17;;;;;;;31.23;29.23;;;;;;;9.99;100.00;101734.09;5563671;25;20049;-75
2024/04/14 01:36:43;;;;;;;33.15;30.58;;;;;;;9.83;100.00;101742.97;5561190;25;20080;-75
2024/04/14 01:39:12;;;;;;;33.65;31.58;;;;;;;-143.39;100.00;64013.03;5563829;25;20556;-75
2024/04/14 01:41:39;;;;;;;36.13;33.88;;;;;;;-143.39;100.00;64013.03;5560842;25;20000;-75
2024/04/14 01:44:14;;;;;;;35.17;33.08;;;;;;;-143.39;100.00;64013.03;5562533;25;20839;-75
2024/04/14 01:46:40;;;;;;;30.98;29.08;;;;;;;-143.39;100.00;64013.03;5560654;25;20009;-76
2024/04/14 01:49:09;;;;;;;31.77;29.30;;;;;;;-143.39;100.00;64013.03;5563176;25;20028;-76
2024/04/14 01:51:37;;;;;;;32.28;30.27;;;;;;;-143.39;100.00;64013.03;5560735;25;19997;-75
2024/04/14 01:54:05;;;;;;;32.10;30.10;;;;;;;-143.39;100.00;64013.03;5563406;25;20000;-75
2024/04/14 01:56:32;;;;;;;31.88;29.88;;;;;;;-143.39;100.00;64013.03;5559633;25;20457;-76
2024/04/14 01:59:01;;;;;;;30.65;28.75;;;;;;;-143.39;100.00;64013.03;5563267;25;20528;-75
2024/04/14 02:01:30;;;;;;;36.40;34.17;;;;;;;-143.39;100.00;64013.03;5560302;25;20094;-75
2024/04/14 02:04:00;;;;;;;33.40;31.50;;;;;;;-143.39;100.00;64013.03;5563224;25;20015;-76
2024/04/14 02:06:27;;;;;;;32.78;30.88;;;;;;;-143.39;100.00;64013.03;5559998;25;20005;-76
2024/04/14 02:08:57;;;;;;;32.20;30.20;;;;;;;-143.39;100.00;64013.03;5563110;25;20000;-76
2024/04/14 02:11:26;;;;;;;35.05;31.67;;;;;;;-143.39;100.00;64013.03;5560178;25;20004;-75
2024/04/14 02:13:52;;;;;;;31.50;29.60;;;;;;;-143.39;100.00;64013.03;5560987;25;19997;-76
2024/04/14 02:16:23;;;;;;;30.48;28.67;;;;;;;-143.39;100.00;64013.03;5556392;25;20070;-76
2024/04/14 02:18:52;;;;;;;31.42;29.52;;;;;;;-143.39;100.00;64013.03;5523170;26;20016;-82
2024/04/14 02:21:20;;;;;;;33.85;31.75;;;;;;;-143.39;100.00;64013.03;5526225;26;19998;-82
2024/04/14 02:23:54;;;;;;;33.67;31.58;;;;;;;-143.39;100.00;64013.03;5516160;26;20041;-83
2024/04/14 02:26:23;;;;;;;32.80;30.80;;;;;;;-143.39;100.00;64013.03;5552491;25;20000;-82
2024/04/14 02:28:49;;;;;;;31.63;29.83;;;;;;;-143.39;100.00;64013.03;5560517;25;20009;-82
2024/04/14 02:31:26;;;;;;;34.75;32.95;;;;;;;-143.39;100.00;64013.03;5562462;25;20009;-82
2024/04/14 02:33:55;;;;;;;35.58;33.58;;;;;;;-143.39;100.00;64013.03;5560265;25;20041;-82
2024/04/14 02:36:27;;;;;;;31.67;29.77;;;;;;;-143.39;100.00;64013.03;5562740;25;20001;-76
2024/04/14 02:38:53;;;;;;;35.10;32.57;;;;;;;-143.39;100.00;64013.03;5560210;25;20009;-82
2024/04/14 02:41:21;;;;;;;33.92;32.03;;;;;;;-143.39;100.00;64013.03;5563821;25;20008;-82
2024/04/14 02:43:48;;;;;;;34.15;32.05;;;;;;;-143.39;100.00;64013.03;5560668;25;20000;-83
2024/04/14 02:46:17;;;;;;;31.45;29.63;;;;;;;-143.39;100.00;64013.03;5563269;25;20004;-82
2024/04/14 02:48:48;;;;;;;29.38;27.67;;;;;;;-143.39;100.00;64013.03;5561368;25;19996;-82
2024/04/14 02:51:23;;;;;;;32.72;30.83;;;;;;;-143.39;100.00;64013.03;5562836;25;20012;-82
2024/04/14 02:53:49;;;;;;;33.13;31.13;;;;;;;-143.39;100.00;64013.03;5560411;25;20436;-82
2024/04/14 02:56:20;;;;;;;32.00;30.10;;;;;;;-143.39;100.00;64013.03;5562631;25;20016;-82
2024/04/14 02:58:54;;;;;;;31.30;29.45;;;;;;;-143.39;100.00;64013.03;5560209;25;20037;-82
2024/04/14 03:01:24;;;;;;;30.90;29.10;;;;;;;-143.39;100.00;64013.03;5562918;25;20084;-82
2024/04/14 03:03:50;;;;;;;31.17;29.38;;;;;;;-143.39;100.00;64013.03;5560343;25;20001;-82
2024/04/14 03:06:21;;;;;;;32.47;30.58;;;;;;;-143.39;100.00;64013.03;5562985;25;19997;-82
2024/04/14 03:08:48;;;;;;;31.00;29.20;;;;;;;-143.39;100.00;64013.03;5559973;25;20332;-82
2024/04/14 03:11:23;;;;;;;32.47;30.48;;;;;;;-143.39;100.00;64013.03;5562273;25;20008;-82
2024/04/14 03:13:49;;;;;;;31.60;29.70;;;;;;;-143.39;100.00;64013.03;5558720;25;20902;-82
2024/04/14 03:16:18;;;;;;;31.00;29.23;;;;;;;-143.39;100.00;64013.03;5561519;25;20000;-81
2024/04/14 03:18:46;;;;;;;34.45;30.88;;;;;;;-143.39;100.00;64013.03;5559330;25;19997;-82
2024/04/14 03:21:15;;;;;;;35.60;33.20;;;;;;;-143.39;100.00;64013.03;5562168;25;20012;-82
2024/04/14 03:23:46;;;;;;;31.15;29.35;;;;;;;-143.39;100.00;64013.03;5552918;25;20610;-82
2024/04/14 03:26:16;;;;;;;29.13;27.52;;;;;;;-143.39;100.00;64013.03;5561221;25;20011;-82
2024/04/14 03:28:42;;;;;;;29.35;27.55;;;;;;;-143.39;100.00;64013.03;5559659;25;19997;-82
2024/04/14 03:31:11;;;;;;;26.42;24.83;;;;;;;-143.39;100.00;64013.03;5562809;25;19997;-83
2024/04/14 03:33:40;;;;;;;24.63;23.13;;;;;;;-143.39;100.00;64013.03;5559580;25;20016;-82
2024/04/14 03:36:07;;;;;;;25.88;24.27;;;;;;;-143.39;100.00;64013.03;5559467;25;20037;-82
2024/04/14 03:38:36;;;;;;;23.65;22.25;;;;;;;-143.39;100.00;64013.03;5562067;25;20531;-83
2024/04/14 03:41:08;;;;;;;24.02;22.50;;;;;;;-143.39;100.00;64013.03;5559517;25;20036;-82
2024/04/14 03:43:37;;;;;;;25.45;23.95;;;;;;;-143.39;100.00;64013.03;5559734;25;19997;-83
2024/04/14 03:46:06;;;;;;;24.65;23.17;;;;;;;-143.39;100.00;64013.03;5559294;25;19997;-83
2024/04/14 03:48:35;;;;;;;24.30;22.90;;;;;;;-143.39;100.00;64013.03;5558540;25;20821;-82
2024/04/14 03:51:01;;;;;;;23.58;22.13;;;;;;;-143.39;100.00;64013.03;5558826;25;20348;-83
2024/04/14 03:53:30;;;;;;;23.15;21.75;;;;;;;-143.39;100.00;64013.03;5561691;25;20448;-83
2024/04/14 03:55:56;;;;;;;25.30;23.52;;;;;;;-143.39;100.00;64013.03;5558488;25;20444;-83
2024/04/14 03:58:30;;;;;;;21.90;20.50;;;;;;;-143.39;100.00;64013.03;5560828;25;20012;-82
2024/04/14 04:00:57;;;;;;;21.35;20.05;;;;;;;-143.39;100.00;64013.03;5558103;25;20971;-82
2024/04/14 04:03:26;;;;;;;22.75;21.35;;;;;;;-143.39;100.00;64013.03;5560790;25;19997;-83
2024/04/14 04:05:55;;;;;;;23.40;21.90;;;;;;;-143.39;100.00;64013.03;5558941;25;20348;-83
2024/04/14 04:08:25;;;;;;;22.40;21.00;;;;;;;-143.39;100.00;64013.03;5562166;25;20000;-83
2024/04/14 04:10:58;;;;;;;23.13;21.58;;;;;;;-143.39;100.00;64013.03;5559040;25;20011;-83
2024/04/14 04:13:30;;;;;;;22.50;21.17;;;;;;;-143.39;100.00;64013.03;5562007;25;20556;-83
2024/04/14 04:16:04;;;;;;;22.17;20.77;;;;;;;-143.39;100.00;64013.03;5559709;25;20347;-83
2024/04/14 04:18:33;;;;;;;23.05;21.55;;;;;;;-143.39;100.00;64013.03;5561968;25;20007;-84
2024/04/14 04:21:05;;;;;;;22.85;21.35;;;;;;;-143.39;100.00;64013.03;5562700;25;20011;-83
2024/04/14 04:23:32;;;;;;;24.75;22.92;;;;;;;-143.39;100.00;64013.03;5556131;25;20000;-83
2024/04/14 04:26:02;;;;;;;24.90;23.30;;;;;;;-143.39;100.00;64013.03;5546131;25;20073;-76
2024/04/14 04:28:31;;;;;;;24.30;22.70;;;;;;;-143.39;100.00;64013.03;5563211;25;19997;-83
2024/04/14 04:31:10;;;;;;;23.67;21.90;;;;;;;-143.39;100.00;64013.03;5566248;25;20011;-84
2024/04/14 04:33:39;;;;;;;25.23;23.63;;;;;;;-143.39;100.00;64013.03;5563235;25;20163;-84
2024/04/14 04:36:08;;;;;;;24.73;22.90;;;;;;;-143.39;100.00;64013.03;5565335;25;20390;-84
2024/04/14 04:38:34;;;;;;;24.25;22.55;;;;;;;-143.39;100.00;64013.03;5524383;26;19997;-84
2024/04/14 04:41:03;;;;;;;26.02;24.33;;;;;;;-143.39;100.00;64013.03;5526536;26;19998;-83
2024/04/14 04:43:32;;;;;;;27.17;24.95;;;;;;;-143.39;100.00;64013.03;5556671;25;20097;-83
2024/04/14 04:46:01;;;;;;;25.67;23.98;;;;;;;-143.39;100.00;64013.03;5564372;25;19997;-84
2024/04/14 04:48:27;;;;;;;28.67;26.70;;;;;;;-143.39;100.00;64013.03;5562317;25;20009;-84
2024/04/14 04:50:56;;;;;;;28.13;26.30;;;;;;;-143.39;100.00;64013.03;5560187;25;20012;-83
2024/04/14 04:53:23;;;;;;;27.70;25.90;;;;;;;-143.39;100.00;64013.03;5543805;25;20416;-84
2024/04/14 04:55:53;;;;;;;29.42;27.52;;;;;;;-143.39;100.00;64013.03;5546824;25;20004;-83
2024/04/14 04:58:19;;;;;;;28.42;26.52;;;;;;;-143.39;100.00;64013.03;5529354;25;20912;-83
2024/04/14 05:00:57;;;;;;;29.85;27.75;;;;;;;-143.39;100.00;64013.03;5529280;25;20016;-84
2024/04/14 05:03:23;;;;;;;30.00;27.70;;;;;;;-143.39;100.00;64013.03;5562486;25;20001;-84
2024/04/14 05:05:59;;;;;;;29.98;27.95;;;;;;;-143.39;100.00;64013.03;5564388;25;20020;-83
2024/04/14 05:08:27;;;;;;;28.38;26.48;;;;;;;-143.39;100.00;64013.03;5542632;25;20063;-83
2024/04/14 05:11:00;;;;;;;30.70;28.65;;;;;;;-143.39;100.00;64013.03;5538895;25;20006;-83
2024/04/14 05:13:32;;;;;;;31.20;29.10;;;;;;;-143.39;100.00;64013.03;5533059;25;20046;-83
2024/04/14 05:16:04;;;;;;;30.95;28.85;;;;;;;-143.39;100.00;64013.03;5555372;25;19992;-83
2024/04/14 05:18:30;;;;;;;31.48;29.48;;;;;;;-143.39;100.00;64013.03;5537563;25;20012;-83
2024/04/14 05:20:59;;;;;;;30.08;28.08;;;;;;;-143.39;100.00;64013.03;5565671;25;20008;-83
2024/04/14 05:23:25;;;;;;;29.35;27.25;;;;;;;-143.39;100.00;64013.03;5544381;25;19998;-84
2024/04/14 05:25:54;;;;;;;28.50;26.60;;;;;;;-143.39;100.00;64013.03;5528161;25;20001;-84
2024/04/14 05:28:25;;;;;;;28.92;27.02;;;;;;;-143.39;100.00;64013.03;5532810;25;20078;-83
2024/04/14 05:30:54;;;;;;;30.05;28.05;;;;;;;-143.39;100.00;64013.03;5544891;25;20407;-83
2024/04/14 05:33:23;;;;;;;29.63;27.73;;;;;;;-143.39;100.00;64013.03;5555846;25;20438;-83
2024/04/14 05:35:56;;;;;;;28.98;27.17;;;;;;;-143.39;100.00;64013.03;5564178;25;20068;-83
2024/04/14 05:38:22;;;;;;;27.85;26.15;;;;;;;-143.39;100.00;64013.03;5561784;25;20001;-84
2024/04/14 05:40:51;;;;;;;28.65;26.80;;;;;;;-143.39;100.00;64013.03;5562924;25;19997;-83
2024/04/14 05:43:17;;;;;;;28.55;26.65;;;;;;;-143.39;100.00;64013.03;5560869;25;20026;-84
2024/04/14 05:45:46;;;;;;;28.67;26.88;;;;;;;-143.39;100.00;64013.03;5563006;25;20032;-83
2024/04/14 05:48:13;;;;;;;28.92;27.13;;;;;;;-143.39;100.00;64013.03;5561354;25;20015;-83
2024/04/14 05:50:45;;;;;;;28.48;26.73;;;;;;;-143.39;100.00;64013.03;5564005;25;19997;-83
2024/04/14 05:53:14;;;;;;;29.33;27.17;;;;;;;-143.39;100.00;64013.03;5560580;25;20013;-83
2024/04/14 05:55:43;;;;;;;30.52;28.63;;;;;;;-143.39;100.00;64013.03;5547673;25;20033;-83
2024/04/14 05:58:10;;;;;;;28.88;27.08;;;;;;;-143.39;100.00;64013.03;5523753;26;20001;-84
2024/04/14 06:00:39;;;;;;;29.52;27.55;;;;;;;-143.39;100.00;64013.03;5541162;25;19997;-83
2024/04/14 06:03:08;;;;;;;27.90;26.20;;;;;;;-143.39;100.00;64013.03;5561459;25;20018;-83
2024/04/14 06:05:38;;;;;;;26.10;24.45;;;;;;;-143.39;100.00;64013.03;5563218;25;19993;-76
2024/04/14 06:08:07;;;;;;;26.45;24.75;;;;;;;-143.39;100.00;64013.03;5560372;25;20011;-76
2024/04/14 06:10:36;;;;;;;28.65;26.75;;;;;;;-143.39;100.00;64013.03;5562953;25;20003;-76
2024/04/14 06:13:02;;;;;;;29.50;27.50;;;;;;;-143.39;100.00;64013.03;5561010;25;20336;-76
2024/04/14 06:15:33;;;;;;;31.60;29.50;;;;;;;-143.39;100.00;64013.03;5563350;25;20068;-76
2024/04/14 06:17:59;;;;;;;31.60;29.30;;;;;;;-143.39;100.00;64013.03;5560514;25;20001;-76
2024/04/14 06:20:28;;;;;;;30.67;28.48;;;;;;;-143.39;100.00;64013.03;5563164;25;20353;-76
2024/04/14 06:22:54;;;;;;;29.90;27.75;;;;;;;-143.39;100.00;64013.03;5560462;25;20497;-83
2024/04/14 06:25:25;;;;;;;30.45;28.35;;;;;;;-143.39;100.00;64013.03;5556479;25;20386;-76
2024/04/14 06:27:54;;;;;;;29.80;27.80;;;;;;;-143.39;100.00;64013.03;5559148;25;19996;-76
2024/04/14 06:30:23;;;;;;;30.90;28.60;;;;;;;-143.39;100.00;64013.03;5562725;25;20037;-76
2024/04/14 06:32:50;;;;;;;28.52;26.52;;;;;;;-143.39;100.00;64013.03;5560024;25;20009;-76
2024/04/14 06:35:19;;;;;;;32.63;29.20;;;;;;;-143.39;100.00;64013.03;5562244;25;20439;-76
2024/04/14 06:37:45;;;;;;;29.80;27.77;;;;;;;-143.39;100.00;64013.03;5558840;25;19992;-76
2024/04/14 06:40:14;;;;;;;31.23;29.13;;;;;;;-143.39;100.00;64013.03;5562815;25;20511;-76
2024/04/14 06:42:43;;;;;;;31.58;29.48;;;;;;;-143.39;100.00;64013.03;5559682;25;20012;-76
2024/04/14 06:45:12;;;;;;;32.67;30.35;;;;;;;-143.39;100.00;64013.03;5563483;25;20037;-83
2024/04/14 06:47:38;;;;;;;30.63;28.63;;;;;;;-143.39;100.00;64013.03;5560785;25;20396;-83
2024/04/14 06:50:08;;;;;;;32.80;30.60;;;;;;;-143.39;100.00;64013.03;5563837;25;20046;-84
2024/04/14 06:52:34;;;;;;;35.05;32.70;;;;;;;-143.39;100.00;64013.03;5559890;25;20095;-76
2024/04/14 06:55:03;;;;;;;71.55;65.53;;;;;;;-143.39;100.00;64013.03;5561960;25;20000;-76
2024/04/14 06:57:30;;;;;;;90.68;80.95;;;;;;;-143.39;100.00;64013.03;5559032;25;20478;-76
2024/04/14 07:00:05;;;;;;;90.13;79.95;;;;;;;-143.39;100.00;64013.03;5561878;25;19997;-76
2024/04/14 07:02:31;;;;;;;90.07;74.85;;;;;;;-143.39;100.00;64013.03;5559708;25;20805;-76
2024/04/14 07:05:00;;;;;;;91.72;80.10;;;;;;;-143.39;100.00;64013.03;5552386;25;20013;-76
2024/04/14 07:07:28;;;;;;;90.57;80.43;;;;;;;-143.39;100.00;64013.03;5551049;25;19993;-77
2024/04/14 07:09:59;;;;;;;75.65;67.65;;;;;;;-143.39;100.00;64013.03;5549191;25;20008;-76
2024/04/14 07:12:25;;;;;;;74.93;67.03;;;;;;;-143.39;100.00;64013.03;5558114;25;19997;-76
2024/04/14 07:14:57;;;;;;;76.25;68.35;;;;;;;-143.39;100.00;64013.03;5561155;25;20012;-76
2024/04/14 07:17:28;;;;;;;74.57;66.97;;;;;;;-143.39;100.00;64013.03;5558140;25;20097;-76
2024/04/14 07:19:57;;;;;;;73.90;66.35;;;;;;;-143.39;100.00;64013.03;5561326;25;20353;-76
2024/04/14 07:22:24;;;;;;;72.80;65.60;;;;;;;-143.39;100.00;64013.03;5558068;25;19996;-76
2024/04/14 07:24:52;;;;;;;71.70;64.55;;;;;;;-143.39;100.00;64013.03;5553130;25;20007;-76
2024/04/14 07:27:18;;;;;;;71.35;64.28;;;;;;;-143.39;100.00;64013.03;5557790;25;20515;-76
2024/04/14 07:29:47;;;;;;;81.88;73.15;;;;;;;-143.39;100.00;64013.03;5561065;25;20037;-76
2024/04/14 07:32:13;;;;;;;70.57;63.40;;;;;;;-143.39;100.00;64013.03;5525808;25;20796;-76
2024/04/14 07:34:45;;;;;;;73.97;66.57;;;;;;;-143.39;100.00;64013.03;5564534;25;21707;-76
2024/04/14 07:37:14;;;;;;;84.67;75.77;;;;;;;-143.39;100.00;64013.03;5558230;25;20085;-77
2024/04/14 07:39:43;;;;;;;85.15;76.18;;;;;;;-143.39;100.00;64013.03;5561022;25;20012;-76
2024/04/14 07:42:10;;;;;;;83.25;74.40;;;;;;;-143.39;100.00;64013.03;5529392;25;20562;-76
2024/04/14 07:44:39;;;;;;;93.78;83.47;;;;;;;-143.39;100.00;64013.03;5550362;25;20001;-76
2024/04/14 07:47:05;;;;;;;91.90;81.90;;;;;;;-143.39;100.00;64013.03;5540624;25;20102;-83
2024/04/14 07:49:41;;;;;;;101.90;82.07;;;;;;;-143.39;100.00;64013.03;5555921;25;20015;-83
2024/04/14 07:52:10;;;;;;;94.43;84.15;;;;;;;-143.39;100.00;64013.03;5559123;25;19997;-84
2024/04/14 07:54:43;;;;;;;101.03;90.47;;;;;;;-143.39;100.00;64013.03;5558210;25;20201;-84
2024/04/14 07:57:11;;;;;;;97.20;86.70;;;;;;;-143.39;100.00;64013.03;5556049;25;20008;-84
2024/04/14 07:59:40;;;;;;;92.35;82.00;;;;;;;-143.39;100.00;64013.03;5563071;25;19997;-84
2024/04/14 08:02:06;;;;;;;171.30;159.55;;;;;;;-143.39;100.00;64013.03;5561383;25;20000;-83
2024/04/14 08:04:36;;;;;;;190.63;178.27;;;;;;;-143.39;100.00;64013.03;5562014;25;20025;-83
2024/04/14 08:07:02;;;;;;;190.15;176.30;;;;;;;-143.39;100.00;64013.03;5558793;25;20064;-83
2024/04/14 08:11:00;;;;;;;194.80;180.57;;;;;;;21.48;100.00;101803.13;5290356;25;20417;-84
2024/04/14 08:13:26;;;;;;;186.10;172.83;;;;;;;21.86;100.00;101798.66;5359331;26;20832;-84
2024/04/14 08:15:55;;;;;;;147.63;135.60;;;;;;;21.64;100.00;101787.88;5361323;26;20247;-84
2024/04/14 08:18:23;;;;;;;166.43;154.25;;;;;;;21.82;100.00;101794.84;5352530;26;20001;-84
2024/04/14 08:20:59;;;;;;;173.73;160.80;;;;;;;21.47;100.00;101798.78;5358849;26;20083;-78
2024/04/14 08:23:25;;;;;;;92.50;81.05;;;;;;;21.91;100.00;101797.91;5358545;26;20455;-79
2024/04/14 08:25:54;;;;;;;95.38;82.40;;;;;;;21.97;100.00;101794.16;5352134;26;20008;-79
2024/04/14 08:28:23;;;;;;;82.95;72.45;;;;;;;22.33;100.00;101799.91;5358792;26;20005;-78
2024/04/14 08:30:52;;;;;;;111.72;99.65;;;;;;;21.77;100.00;101799.38;5359762;26;20045;-80
2024/04/14 08:33:18;;;;;;;96.90;83.15;;;;;;;22.06;100.00;101799.91;5359410;26;20016;-75
2024/04/14 08:35:47;;;;;;;96.47;83.32;;;;;;;21.62;100.00;101800.84;5361308;26;20051;-77
2024/04/14 08:38:15;;;;;;;91.10;81.00;;;;;;;21.91;100.00;101793.31;5357101;26;20009;-76
2024/04/14 08:40:53;;;;;;;90.95;80.97;;;;;;;22.33;100.00;101798.03;5357123;26;20027;-76
2024/04/14 08:43:22;;;;;;;112.50;81.40;;;;;;;22.12;100.00;101797.00;5353103;26;20001;-77
2024/04/14 08:45:53;;;;;;;94.55;82.85;;;;;;;21.78;100.00;101798.28;5359689;26;20016;-81
2024/04/14 08:48:19;;;;;;;96.65;85.05;;;;;;;22.06;100.00;101800.75;5343235;26;20050;-81
2024/04/14 08:50:50;;;;;;;96.82;84.03;;;;;;;21.94;100.00;101791.97;5359244;26;20009;-81
2024/04/14 08:53:18;;;;;;;111.78;100.55;;;;;;;22.22;100.00;101799.03;5353892;26;20457;-77
2024/04/14 08:55:47;;;;;;;113.25;101.78;;;;;;;23.06;100.00;101787.44;5358095;26;20001;-80
2024/04/14 08:58:22;;;;;;;136.15;123.97;;;;;;;22.48;100.00;101791.09;5358075;26;20015;-79
2024/04/14 09:01:02;;;;;;;129.93;117.95;;;;;;;22.78;100.00;101779.63;5360023;26;20013;-80
2024/04/14 09:03:30;;;;;;;123.18;112.88;;;;;;;22.76;100.00;101779.09;5355607;26;20471;-79
2024/04/14 09:06:04;;;;;;;124.00;112.82;;;;;;;22.18;100.00;101782.50;5347006;26;20526;-80
2024/04/14 09:08:30;;;;;;;126.20;114.95;;;;;;;23.52;100.00;101773.22;5357003;26;20050;-80
2024/04/14 09:11:18;;;;;;;59.60;56.15;;;;;;;23.12;100.00;101766.59;5360351;26;20033;-86
2024/04/14 09:13:47;;;;;;;66.45;62.83;;;;;;;23.71;100.00;101763.53;5334888;26;20004;-85
2024/04/14 09:16:16;;;;;;;41.97;39.33;;;;;;;24.83;100.00;101762.66;5361418;26;20077;-86
2024/04/14 09:18:45;;;;;;;33.03;30.80;;;;;;;23.58;100.00;101755.88;5343990;26;20000;-89
2024/04/14 09:21:16;;;;;;;44.80;42.05;;;;;;;23.11;100.00;101753.28;5352909;26;20011;-90
2024/04/14 09:23:42;;;;;;;120.85;115.05;;;;;;;23.16;100.00;101753.31;5342399;26;20005;-78
2024/04/14 09:26:12;;;;;;;122.03;116.22;;;;;;;23.97;100.00;101755.44;5315751;26;20010;-78
2024/04/14 09:28:38;;;;;;;120.70;115.00;;;;;;;22.95;100.00;101760.53;5308301;26;20006;-78
2024/04/14 09:31:10;;;;;;;117.53;111.60;;;;;;;22.84;100.00;101756.94;5343418;26;20828;-77
2024/04/14 09:33:39;;;;;;;32.50;30.20;;;;;;;23.86;100.00;101748.34;5333049;26;20009;-78
2024/04/14 09:36:10;;;;;;;62.17;58.75;;;;;;;23.39;100.00;101744.72;5345724;26;20005;-78
2024/04/14 09:38:37;;;;;;;41.72;38.95;;;;;;;24.11;100.00;101747.53;5342756;26;20017;-82
2024/04/14 09:41:07;;;;;;;34.88;32.47;;;;;;;25.36;88.18;101735.81;5345808;26;20008;-83
2024/04/14 09:43:35;;;;;;;46.35;43.58;;;;;;;24.53;100.00;101732.88;5342339;26;20047;-82
2024/04/14 09:46:06;;;;;;;68.72;64.07;;;;;;;25.09;87.88;101738.91;5313239;26;20001;-81
2024/04/14 09:48:37;;;;;;;74.40;70.30;;;;;;;24.01;100.00;101729.38;5321461;26;20132;-81
2024/04/14 09:51:09;;;;;;;60.97;57.40;;;;;;;23.02;100.00;101739.44;5342777;26;20024;-81
2024/04/14 09:53:36;;;;;;;56.85;53.45;;;;;;;26.95;78.20;101718.88;5341083;26;20462;-81
2024/04/14 09:56:05;;;;;;;53.67;50.38;;;;;;;25.78;67.69;101720.03;5346180;26;20001;-81
2024/04/14 09:58:31;;;;;;;64.75;60.95;;;;;;;26.46;63.00;101719.16;5342921;26;20008;-81
2024/04/14 10:01:03;;;;;;;85.82;81.22;;;;;;;25.03;72.94;101722.94;5345029;26;20008;-81
2024/04/14 10:03:32;;;;;;;74.00;70.00;;;;;;;23.72;100.00;101716.34;5343264;26;20005;-82
2024/04/14 10:06:05;;;;;;;73.05;69.13;;;;;;;25.80;91.31;101715.13;5345766;26;20340;-81
2024/04/14 10:08:33;;;;;;;47.55;44.55;;;;;;;26.84;72.67;101713.84;5339603;26;20078;-81
2024/04/14 10:11:04;;;;;;;57.60;54.20;;;;;;;25.23;84.42;101713.88;5332595;26;20005;-82
2024/04/14 10:13:46;;;;;;;49.65;46.55;;;;;;;23.93;100.00;101716.34;5342993;26;20507;-82
2024/04/14 10:16:15;;;;;;;48.50;45.40;;;;;;;25.01;93.93;101706.06;5345180;26;20008;-82
2024/04/14 10:18:43;;;;;;;71.50;67.50;;;;;;;26.71;64.88;101705.28;5342937;26;20015;-82
2024/04/14 10:21:21;;;;;;;75.78;71.65;;;;;;;26.37;82.46;101702.63;5329084;26;20002;-81
2024/04/14 10:23:48;;;;;;;59.30;55.60;;;;;;;25.90;64.61;101700.63;5328030;26;20064;-80
2024/04/14 10:26:18;;;;;;;66.40;62.50;;;;;;;26.33;70.16;101692.63;5331055;26;20005;-81
2024/04/14 10:28:51;;;;;;;49.42;46.13;;;;;;;26.25;65.47;101691.34;5343055;26;20004;-81
2024/04/14 10:31:28;;;;;;;49.53;45.28;;;;;;;26.07;67.62;101698.31;5332157;26;20017;-82
2024/04/14 10:34:06;;;;;;;57.55;54.05;;;;;;;24.47;100.00;101695.94;5309520;26;20091;-82
2024/04/14 10:36:36;;;;;;;55.85;52.30;;;;;;;23.25;100.00;101687.50;5342935;26;20752;-82
2024/04/14 10:39:07;;;;;;;49.33;46.22;;;;;;;25.07;92.16;101681.31;5336972;26;19997;-82
2024/04/14 10:41:36;;;;;;;42.00;38.80;;;;;;;25.32;98.78;101683.09;5339332;26;20013;-83
2024/04/14 10:44:05;;;;;;;67.32;63.25;;;;;;;24.52;84.34;101683.19;5310355;26;20017;-82
2024/04/14 10:46:31;;;;;;;37.80;35.10;;;;;;;27.29;72.04;101671.53;5322694;26;20012;-83
2024/04/14 10:49:03;;;;;;;86.88;82.18;;;;;;;26.98;63.56;101683.97;5344896;26;20020;-83
2024/04/14 10:51:29;;;;;;;79.35;74.90;;;;;;;27.88;77.20;101680.19;5336121;26;20005;-81
2024/04/14 10:54:01;;;;;;;70.32;66.13;;;;;;;26.69;83.19;101665.81;5345926;26;20019;-77
2024/04/14 10:56:28;;;;;;;52.28;49.00;;;;;;;26.17;65.89;101660.13;5343063;26;20481;-81
2024/04/14 10:58:57;;;;;;;80.95;76.55;;;;;;;27.07;73.72;101655.75;5344985;26;20001;-80
2024/04/14 11:01:23;;;;;;;42.90;39.95;;;;;;;25.72;64.71;101669.47;5339215;26;20027;-82
2024/04/14 11:03:53;;;;;;;120.28;114.22;;;;;;;29.07;60.16;101650.25;5309680;26;20334;-80
2024/04/14 11:06:23;;;;;;;74.40;70.13;;;;;;;27.42;55.72;101653.63;5330438;26;20340;-79
2024/04/14 11:08:52;;;;;;;96.15;88.78;;;;;;;27.67;55.76;101640.69;5345879;26;20000;-85